Time;durP1;ratioP1;P1;durP2;ratioP2;P2;SDS_P1;SDS_P2;PMS_P1;PMS_P2;Temp;Humidity;BMP_temperature;BMP_pressure;BME280_temperature;BME280_humidity;BME280_pressure;Samples;Min_cycle;Max_cycle;Signal;HPM_P1;HPM_P2
2021/01/19 00:01:40;;;;;;;8.20;5.70;;;3.50;91.00;;;;;;4988171;28;20234;-63
2021/01/19 00:04:05;;;;;;;8.07;5.17;;;3.50;93.50;;;;;;4989561;28;20183;-64
2021/01/19 00:06:31;;;;;;;7.43;5.60;;;3.60;90.90;;;;;;4989557;28;20168;-64
2021/01/19 00:08:57;;;;;;;6.83;5.10;;;3.50;91.70;;;;;;4988437;28;20533;-63
2021/01/19 00:11:22;;;;;;;10.17;5.10;;;3.60;90.20;;;;;;4988558;28;20192;-63
2021/01/19 00:13:48;;;;;;;6.93;4.97;;;3.60;89.90;;;;;;4988614;28;20201;-64
2021/01/19 00:16:13;;;;;;;6.93;5.30;;;3.50;90.70;;;;;;4989757;28;20651;-63
2021/01/19 00:18:39;;;;;;;6.00;5.40;;;3.50;92.10;;;;;;4987346;28;20238;-63
2021/01/19 00:21:05;;;;;;;5.63;5.00;;;3.50;90.80;;;;;;4990002;28;20199;-63
2021/01/19 00:23:30;;;;;;;7.17;5.17;;;3.50;91.40;;;;;;4989265;28;20234;-63
2021/01/19 00:25:56;;;;;;;6.80;5.33;;;3.50;89.10;;;;;;4989609;28;21238;-64
2021/01/19 00:28:22;;;;;;;6.60;5.57;;;3.50;82.60;;;;;;4989411;28;20188;-64
2021/01/19 00:30:47;;;;;;;6.97;5.23;;;3.50;89.70;;;;;;4988220;28;20233;-64
2021/01/19 00:33:13;;;;;;;6.70;5.40;;;3.50;79.30;;;;;;4989126;28;20187;-64
2021/01/19 00:35:42;;;;;;;6.17;5.40;;;3.60;74.50;;;;;;4988127;28;20182;-64
2021/01/19 00:38:09;;;;;;;6.85;5.13;;;3.60;69.40;;;;;;4988974;28;20449;-64
2021/01/19 00:40:34;;;;;;;8.40;5.72;;;3.60;68.60;;;;;;4989611;28;20243;-64
2021/01/19 00:43:00;;;;;;;7.70;5.93;;;3.60;63.40;;;;;;4988612;28;20673;-64
2021/01/19 00:45:27;;;;;;;4.60;3.63;;;3.60;66.40;;;;;;4988149;28;20192;-63
2021/01/19 00:47:52;;;;;;;6.10;4.63;;;3.70;56.10;;;;;;4985042;28;20457;-64
2021/01/19 00:50:18;;;;;;;5.60;4.87;;;3.70;49.10;;;;;;4984407;28;20199;-64
2021/01/19 00:52:43;;;;;;;9.43;5.03;;;3.80;50.00;;;;;;4986755;28;20178;-64
2021/01/19 00:55:10;;;;;;;5.37;4.87;;;3.80;39.40;;;;;;4989933;28;20624;-64
2021/01/19 00:57:36;;;;;;;5.60;4.85;;;3.90;39.80;;;;;;4988278;28;20693;-64
2021/01/19 01:00:05;;;;;;;5.78;4.90;;;3.90;34.50;;;;;;4989961;28;20184;-64
2021/01/19 01:02:33;;;;;;;4.95;4.43;;;3.90;28.70;;;;;;4988138;28;20191;-64
2021/01/19 01:04:59;;;;;;;5.20;4.50;;;3.90;28.80;;;;;;4990026;28;20243;-64
2021/01/19 01:07:24;;;;;;;5.50;4.50;;;4.00;19.40;;;;;;4988055;28;20188;-64
2021/01/19 01:09:50;;;;;;;4.97;4.40;;;4.10;17.20;;;;;;4988532;28;20274;-64
2021/01/19 01:12:15;;;;;;;6.07;5.00;;;4.00;19.50;;;;;;4986837;28;20264;-64
2021/01/19 01:14:41;;;;;;;5.23;4.13;;;4.10;12.50;;;;;;4989921;28;20184;-64
2021/01/19 01:17:07;;;;;;;5.60;4.47;;;4.10;10.90;;;;;;4991566;28;20184;-65
2021/01/19 01:19:32;;;;;;;4.40;4.00;;;4.10;9.10;;;;;;4993057;28;20270;-65
2021/01/19 01:22:01;;;;;;;5.93;4.77;;;4.10;11.00;;;;;;4991386;28;20187;-64
2021/01/19 01:24:27;;;;;;;6.13;4.35;;;4.10;9.90;;;;;;4992833;28;20730;-64
2021/01/19 01:26:53;;;;;;;5.80;4.33;;;4.10;5.20;;;;;;4991342;28;20211;-65
2021/01/19 01:29:18;;;;;;;4.70;4.25;;;4.10;2.10;;;;;;4992290;28;20270;-65
2021/01/19 01:31:44;;;;;;;5.10;4.40;;;4.10;2.30;;;;;;4992615;28;20271;-65
2021/01/19 01:34:10;;;;;;;5.30;4.40;;;4.20;1.00;;;;;;4991993;28;20263;-65
2021/01/19 01:36:40;;;;;;;4.67;4.00;;;4.30;1.00;;;;;;4982413;28;20296;-65
2021/01/19 01:39:06;;;;;;;4.40;4.00;;;4.20;1.00;;;;;;4990292;28;20195;-65
2021/01/19 01:41:32;;;;;;;4.57;3.93;;;4.20;1.00;;;;;;4991840;28;20568;-65
2021/01/19 01:43:57;;;;;;;4.40;4.00;;;4.30;1.00;;;;;;4984241;28;20482;-65
2021/01/19 01:46:23;;;;;;;5.17;4.67;;;4.30;1.00;;;;;;4985636;28;20184;-65
2021/01/19 01:48:49;;;;;;;4.47;4.07;;;4.30;1.00;;;;;;4991980;28;20199;-65
2021/01/19 01:51:15;;;;;;;5.20;4.70;;;4.30;1.00;;;;;;4992640;28;20270;-65
2021/01/19 01:53:41;;;;;;;5.18;4.65;;;4.30;1.00;;;;;;4991292;28;20237;-65
2021/01/19 01:56:10;;;;;;;4.15;3.75;;;4.30;1.00;;;;;;4992834;28;20585;-65
2021/01/19 01:58:36;;;;;;;5.75;4.57;;;4.30;1.00;;;;;;4990732;28;20188;-65
2021/01/19 02:01:04;;;;;;;5.07;4.20;;;4.30;1.00;;;;;;4992706;28;20167;-65
2021/01/19 02:03:30;;;;;;;6.43;4.40;;;4.30;1.00;;;;;;4992160;28;20211;-65
2021/01/19 02:05:55;;;;;;;4.53;4.07;;;4.30;1.00;;;;;;4990986;28;20222;-65
2021/01/19 02:08:40;;;;;;;4.33;3.93;;;4.30;1.00;;;;;;4992236;28;20249;-65
2021/01/19 02:11:28;;;;;;;4.55;4.13;;;4.40;1.00;;;;;;4990399;28;20218;-64
2021/01/19 02:14:09;;;;;;;4.40;4.00;;;4.40;1.00;;;;;;4989695;28;20196;-66
2021/01/19 02:16:58;;;;;;;4.47;4.07;;;4.40;1.00;;;;;;4991555;28;20175;-65
2021/01/19 02:19:54;;;;;;;4.72;3.78;;;4.40;1.00;;;;;;4988352;28;20207;-65
2021/01/19 02:22:43;;;;;;;5.15;3.70;;;4.40;1.00;;;;;;4990483;28;20587;-65
2021/01/19 02:25:24;;;;;;;4.40;4.00;;;4.40;1.00;;;;;;4990558;28;20211;-65
2021/01/19 02:28:05;;;;;;;4.38;3.97;;;4.30;1.00;;;;;;4990405;28;20203;-65
2021/01/19 02:31:09;;;;;;;5.25;4.47;;;4.30;1.00;;;;;;4991816;28;20222;-65
2021/01/19 02:33:38;;;;;;;5.63;4.32;;;4.30;1.00;;;;;;4991334;28;20183;-65
2021/01/19 02:36:12;;;;;;;5.03;4.53;;;4.30;1.00;;;;;;4990698;28;20627;-65
2021/01/19 02:38:47;;;;;;;4.68;4.18;;;4.40;1.00;;;;;;4992262;28;20184;-65
2021/01/19 02:41:13;;;;;;;4.63;3.80;;;4.40;1.00;;;;;;4990522;28;20314;-65
2021/01/19 02:43:41;;;;;;;4.20;3.73;;;4.30;1.00;;;;;;4989687;28;20293;-64
2021/01/19 02:46:06;;;;;;;4.65;4.15;;;4.30;1.00;;;;;;4989214;28;20442;-64
2021/01/19 02:48:32;;;;;;;5.83;3.70;;;4.40;1.00;;;;;;4987394;28;20184;-64
2021/01/19 02:50:58;;;;;;;4.22;3.83;;;4.40;1.00;;;;;;4989823;28;20318;-64
2021/01/19 02:53:24;;;;;;;4.93;4.40;;;4.40;1.00;;;;;;4991862;28;20236;-65
2021/01/19 02:55:51;;;;;;;4.93;4.30;;;4.50;1.00;;;;;;4990620;28;20508;-64
2021/01/19 02:58:39;;;;;;;5.25;4.50;;;4.50;1.00;;;;;;4991707;28;20529;-64
2021/01/19 03:01:14;;;;;;;4.18;3.78;;;4.50;1.00;;;;;;4990276;28;20298;-65
2021/01/19 03:03:40;;;;;;;4.68;4.20;;;4.50;1.00;;;;;;4991907;28;20183;-64
2021/01/19 03:06:18;;;;;;;4.97;4.50;;;4.50;1.00;;;;;;4988925;28;20211;-64
2021/01/19 03:08:45;;;;;;;5.13;4.35;;;4.50;1.00;;;;;;4972191;28;20184;-64
2021/01/19 03:11:15;;;;;;;4.65;4.20;;;4.60;1.00;;;;;;4989986;28;20211;-64
2021/01/19 03:13:51;;;;;;;6.13;4.45;;;4.60;1.00;;;;;;4988309;28;20207;-64
2021/01/19 03:16:18;;;;;;;5.80;5.20;;;4.60;1.00;;;;;;4990220;28;20319;-63
2021/01/19 03:18:45;;;;;;;5.20;4.30;;;4.60;1.00;;;;;;4990196;28;20176;-64
2021/01/19 03:21:12;;;;;;;5.22;4.72;;;4.50;1.00;;;;;;4989838;28;20187;-64
2021/01/19 03:23:38;;;;;;;5.13;4.65;;;4.50;1.00;;;;;;4989784;28;20192;-64
2021/01/19 03:26:05;;;;;;;5.22;4.60;;;4.50;1.00;;;;;;4991133;28;20195;-64
2021/01/19 03:28:31;;;;;;;4.82;4.18;;;4.50;1.00;;;;;;4988528;28;20545;-64
2021/01/19 03:30:57;;;;;;;5.37;4.60;;;4.40;1.00;;;;;;4989711;28;20199;-64
2021/01/19 03:33:23;;;;;;;19.30;5.67;;;4.40;1.00;;;;;;4989805;28;20949;-64
2021/01/19 03:35:49;;;;;;;4.72;4.32;;;4.40;1.00;;;;;;4986569;28;20439;-64
2021/01/19 03:38:15;;;;;;;5.88;4.78;;;4.40;1.00;;;;;;4989404;28;20781;-64
2021/01/19 03:40:41;;;;;;;5.70;5.10;;;4.40;1.00;;;;;;4989227;28;20227;-64
2021/01/19 03:43:07;;;;;;;6.50;5.17;;;4.30;1.00;;;;;;4989490;28;20430;-64
2021/01/19 03:45:33;;;;;;;12.75;7.45;;;4.30;1.00;;;;;;4990326;28;20216;-63
2021/01/19 03:47:59;;;;;;;5.70;4.80;;;4.40;1.00;;;;;;4987552;28;20884;-63
2021/01/19 03:50:26;;;;;;;5.70;5.13;;;4.30;1.00;;;;;;4990374;28;20274;-64
2021/01/19 03:52:52;;;;;;;5.68;4.65;;;4.30;1.00;;;;;;4988890;28;20188;-63
2021/01/19 03:55:18;;;;;;;5.40;4.90;;;4.30;1.00;;;;;;4989055;28;20550;-65
2021/01/19 03:57:43;;;;;;;5.00;4.50;;;4.30;1.00;;;;;;4989755;28;20967;-64
2021/01/19 04:00:13;;;;;;;6.40;4.37;;;4.40;1.00;;;;;;4989941;28;20168;-63
2021/01/19 04:02:39;;;;;;;5.40;4.90;;;4.40;1.00;;;;;;4990365;28;20192;-63
2021/01/19 04:05:06;;;;;;;5.20;4.70;;;4.30;1.00;;;;;;4990779;28;20180;-63
2021/01/19 04:07:43;;;;;;;5.22;4.07;;;4.30;1.00;;;;;;4988342;28;20191;-64
2021/01/19 04:10:13;;;;;;;6.07;4.60;;;4.30;1.00;;;;;;4990015;28;21021;-64
2021/01/19 04:12:40;;;;;;;5.07;4.20;;;4.30;1.00;;;;;;4981765;28;20215;-64
2021/01/19 04:15:06;;;;;;;4.47;4.05;;;4.40;1.00;;;;;;4990041;28;20199;-64
2021/01/19 04:17:32;;;;;;;4.40;4.00;;;4.40;1.00;;;;;;4987504;28;20210;-64
2021/01/19 04:19:57;;;;;;;4.70;4.20;;;4.50;1.00;;;;;;4989139;28;20632;-64
2021/01/19 04:22:24;;;;;;;4.60;4.20;;;4.50;1.00;;;;;;4988775;28;20233;-64
2021/01/19 04:24:51;;;;;;;4.60;3.90;;;4.50;1.00;;;;;;4976954;28;20182;-64
2021/01/19 04:27:17;;;;;;;4.68;3.92;;;4.50;1.00;;;;;;4989215;28;20192;-64
2021/01/19 04:29:43;;;;;;;4.40;3.90;;;4.50;1.00;;;;;;4988697;28;20227;-64
2021/01/19 04:32:08;;;;;;;4.07;3.67;;;4.50;1.00;;;;;;4988686;28;20199;-64
2021/01/19 04:34:34;;;;;;;4.00;3.60;;;4.50;1.00;;;;;;4988958;28;20587;-64
2021/01/19 04:37:00;;;;;;;3.87;3.57;;;4.50;1.00;;;;;;4988634;28;20765;-64
2021/01/19 04:39:25;;;;;;;4.47;4.03;;;4.50;1.00;;;;;;4989680;28;20250;-64
2021/01/19 04:41:51;;;;;;;4.80;3.57;;;4.60;1.00;;;;;;4986742;28;20224;-63
2021/01/19 04:44:18;;;;;;;4.43;4.03;;;4.50;1.00;;;;;;4989382;28;20267;-64
2021/01/19 04:46:44;;;;;;;4.30;3.90;;;4.50;1.00;;;;;;4989700;28;20242;-63
2021/01/19 04:49:11;;;;;;;10.40;3.60;;;4.50;1.00;;;;;;4989516;28;20184;-63
2021/01/19 04:51:38;;;;;;;3.75;3.40;;;4.60;1.00;;;;;;4993715;28;20677;-63
2021/01/19 04:54:05;;;;;;;4.80;4.18;;;4.50;1.00;;;;;;4991791;28;20175;-63
2021/01/19 04:56:31;;;;;;;4.32;3.70;;;4.50;1.00;;;;;;4992703;28;20183;-64
2021/01/19 04:58:58;;;;;;;4.65;4.20;;;4.40;1.00;;;;;;4993333;28;20506;-63
2021/01/19 05:01:35;;;;;;;4.10;3.70;;;4.50;1.00;;;;;;4991452;28;20753;-63
2021/01/19 05:04:27;;;;;;;5.05;3.92;;;4.50;1.00;;;;;;4993472;28;20218;-63
2021/01/19 05:07:13;;;;;;;4.43;4.03;;;4.40;1.00;;;;;;4990821;28;20203;-63
2021/01/19 05:10:00;;;;;;;96.28;56.08;;;4.40;1.00;;;;;;4986489;28;20203;-62
2021/01/19 05:12:37;;;;;;;3.88;3.53;;;4.40;1.00;;;;;;4989504;28;20306;-63
2021/01/19 05:15:05;;;;;;;5.70;3.50;;;4.50;1.00;;;;;;4990580;28;20210;-62
2021/01/19 05:17:32;;;;;;;4.80;4.38;;;4.50;1.00;;;;;;4983315;28;20183;-63
2021/01/19 05:19:59;;;;;;;4.20;3.80;;;4.50;1.00;;;;;;4982193;28;20191;-63
2021/01/19 05:22:25;;;;;;;5.25;4.72;;;4.50;1.00;;;;;;4982664;28;20207;-64
2021/01/19 05:24:52;;;;;;;5.43;4.93;;;4.60;1.00;;;;;;4982599;28;20188;-63
2021/01/19 05:27:18;;;;;;;4.93;4.47;;;4.50;1.00;;;;;;4982766;28;20237;-63
2021/01/19 05:29:44;;;;;;;6.07;4.40;;;4.50;1.00;;;;;;4983484;28;20211;-63
2021/01/19 05:32:09;;;;;;;5.37;4.67;;;4.40;1.00;;;;;;4984187;28;20927;-63
2021/01/19 05:34:36;;;;;;;5.30;4.20;;;4.40;1.00;;;;;;4986610;28;20180;-63
2021/01/19 05:37:02;;;;;;;6.20;4.90;;;4.40;1.00;;;;;;4992648;28;20619;-63
2021/01/19 05:39:28;;;;;;;5.70;4.65;;;4.30;1.00;;;;;;4991611;28;20187;-63
2021/01/19 05:41:55;;;;;;;7.13;4.80;;;4.20;1.00;;;;;;4991981;28;20665;-62
2021/01/19 05:44:30;;;;;;;5.28;4.25;;;4.20;1.00;;;;;;4990586;28;20251;-62
2021/01/19 05:46:59;;;;;;;9.75;4.68;;;4.20;1.00;;;;;;4992778;28;20207;-62
2021/01/19 05:49:30;;;;;;;5.68;4.68;;;4.30;1.00;;;;;;4992509;28;20180;-62
2021/01/19 05:52:06;;;;;;;5.07;4.55;;;4.40;1.00;;;;;;4992111;28;20191;-63
2021/01/19 05:54:42;;;;;;;63.80;15.50;;;4.40;1.00;;;;;;4992662;28;20582;-63
2021/01/19 05:57:21;;;;;;;5.45;4.53;;;4.40;1.00;;;;;;4991212;28;20183;-63
2021/01/19 05:59:53;;;;;;;5.10;4.65;;;4.40;1.00;;;;;;4992170;28;20183;-62
2021/01/19 06:02:21;;;;;;;5.20;4.53;;;4.40;1.00;;;;;;4990747;28;20191;-63
2021/01/19 06:04:49;;;;;;;5.45;4.90;;;4.40;1.00;;;;;;4991652;28;20183;-63
2021/01/19 06:07:17;;;;;;;6.35;4.65;;;4.40;1.00;;;;;;4992029;28;20191;-62
2021/01/19 06:09:44;;;;;;;5.65;4.85;;;4.40;1.00;;;;;;4991728;28;20250;-63
2021/01/19 06:12:09;;;;;;;6.10;4.70;;;4.40;1.00;;;;;;4990368;28;20176;-63
2021/01/19 06:14:36;;;;;;;5.97;5.10;;;4.40;1.00;;;;;;4992208;28;20207;-63
2021/01/19 06:17:10;;;;;;;5.68;4.93;;;4.50;1.00;;;;;;4992074;28;20423;-62
2021/01/19 06:19:37;;;;;;;5.57;4.82;;;4.50;1.00;;;;;;4985294;28;20205;-63
2021/01/19 06:22:17;;;;;;;5.82;5.22;;;4.40;1.00;;;;;;4990810;28;20188;-63
2021/01/19 06:24:44;;;;;;;5.50;4.85;;;4.40;1.00;;;;;;4992085;28;20187;-63
2021/01/19 06:27:13;;;;;;;6.75;5.10;;;4.40;1.00;;;;;;4992401;28;20202;-63
2021/01/19 06:29:39;;;;;;;6.28;5.53;;;4.30;1.00;;;;;;4990960;28;20207;-63
2021/01/19 06:32:07;;;;;;;6.53;5.37;;;4.20;1.00;;;;;;4991489;28;20251;-63
2021/01/19 06:34:37;;;;;;;6.28;5.32;;;4.20;1.00;;;;;;4990389;28;20536;-64
2021/01/19 06:37:03;;;;;;;7.07;5.25;;;4.20;1.00;;;;;;4991938;28;20223;-63
2021/01/19 06:39:38;;;;;;;5.97;5.38;;;4.10;1.00;;;;;;4992109;28;20172;-63
2021/01/19 06:42:15;;;;;;;7.30;5.20;;;4.10;1.00;;;;;;4990484;28;20258;-63
2021/01/19 06:44:46;;;;;;;5.65;5.05;;;4.10;1.00;;;;;;4991751;28;20183;-63
2021/01/19 06:47:14;;;;;;;6.22;5.60;;;4.10;1.00;;;;;;4991245;28;20250;-70
2021/01/19 06:49:40;;;;;;;6.20;5.20;;;4.20;1.00;;;;;;4991568;28;20241;-69
2021/01/19 06:52:14;;;;;;;6.20;5.60;;;4.20;1.00;;;;;;4992104;28;20559;-69
2021/01/19 06:54:46;;;;;;;6.10;5.50;;;4.20;1.00;;;;;;4990094;28;20423;-70
2021/01/19 06:57:29;;;;;;;7.88;6.10;;;4.30;1.00;;;;;;4991745;28;20255;-70
2021/01/19 07:00:08;;;;;;;5.70;5.10;;;4.30;1.00;;;;;;4990335;28;20187;-70
2021/01/19 07:02:39;;;;;;;6.70;5.63;;;4.30;1.00;;;;;;4991531;28;20211;-69
2021/01/19 07:05:24;;;;;;;7.60;5.40;;;4.20;1.00;;;;;;4990852;28;20729;-69
2021/01/19 07:08:18;;;;;;;7.18;6.18;;;4.10;1.00;;;;;;4991616;28;20161;-69
2021/01/19 07:11:16;;;;;;;6.60;5.80;;;4.20;1.00;;;;;;4991781;28;20228;-68
2021/01/19 07:13:42;;;;;;;6.85;5.30;;;4.10;1.00;;;;;;4990895;28;20576;-69
2021/01/19 07:16:11;;;;;;;6.63;5.93;;;4.20;1.00;;;;;;4989654;28;20283;-69
2021/01/19 07:18:43;;;;;;;7.85;6.10;;;4.30;1.00;;;;;;4990030;28;20417;-69
2021/01/19 07:21:13;;;;;;;6.45;5.85;;;4.30;1.00;;;;;;5006137;28;20303;-69
2021/01/19 07:24:19;;;;;;;7.40;6.38;;;4.30;1.00;;;;;;4989223;28;20554;-69
2021/01/19 07:26:46;;;;;;;7.65;6.18;;;4.30;1.00;;;;;;4990855;28;20194;-69
2021/01/19 07:29:14;;;;;;;10.05;6.03;;;4.30;1.00;;;;;;4987523;28;20191;-69
2021/01/19 07:31:40;;;;;;;6.90;5.93;;;4.40;1.00;;;;;;4989217;28;20303;-69
2021/01/19 07:34:07;;;;;;;7.30;6.47;;;4.40;1.00;;;;;;4989417;28;20179;-69
2021/01/19 07:36:33;;;;;;;6.03;5.40;;;4.40;1.00;;;;;;4989308;28;20246;-68
2021/01/19 07:38:58;;;;;;;7.83;5.60;;;4.40;1.00;;;;;;4989370;28;20647;-68
2021/01/19 07:41:30;;;;;;;9.10;6.50;;;4.40;1.00;;;;;;4990607;28;20857;-69
2021/01/19 07:43:56;;;;;;;7.07;6.38;;;4.40;1.00;;;;;;4988918;28;20179;-69
2021/01/19 07:46:27;;;;;;;7.13;6.32;;;4.40;1.00;;;;;;4990733;28;20195;-69
2021/01/19 07:49:07;;;;;;;7.68;6.85;;;4.40;1.00;;;;;;4990414;28;20702;-67
2021/01/19 07:51:47;;;;;;;8.50;6.25;;;4.30;1.00;;;;;;4979469;28;20199;-69
2021/01/19 07:54:25;;;;;;;7.63;6.32;;;4.40;1.00;;;;;;4986226;28;20184;-70
2021/01/19 07:56:51;;;;;;;7.07;6.40;;;4.40;1.00;;;;;;4985037;28;20184;-70
2021/01/19 07:59:19;;;;;;;8.95;6.18;;;4.30;1.00;;;;;;4988500;28;20180;-70
2021/01/19 08:01:58;;;;;;;7.35;6.00;;;4.30;1.00;;;;;;4989991;28;21018;-70
2021/01/19 08:04:32;;;;;;;7.38;5.95;;;4.30;1.00;;;;;;4989675;28;20658;-70
2021/01/19 08:07:13;;;;;;;6.50;5.75;;;4.40;1.00;;;;;;4989293;28;20176;-70
2021/01/19 08:09:39;;;;;;;7.63;6.57;;;4.40;1.00;;;;;;4989825;28;20278;-70
2021/01/19 08:12:17;;;;;;;6.83;6.10;;;4.50;1.00;;;;;;4989362;28;20603;-70
2021/01/19 08:14:44;;;;;;;7.85;6.63;;;4.50;1.00;;;;;;4989719;28;21323;-70
2021/01/19 08:17:11;;;;;;;7.13;5.75;;;4.50;1.00;;;;;;4990065;28;20856;-70
2021/01/19 08:19:38;;;;;;;4.65;4.25;;;4.70;1.00;;;;;;4989780;28;20238;-70
2021/01/19 08:22:04;;;;;;;7.07;4.00;;;4.70;1.00;;;;;;4989507;28;20183;-70
2021/01/19 08:24:30;;;;;;;5.38;4.88;;;4.70;1.00;;;;;;4989901;28;20287;-71
2021/01/19 08:26:56;;;;;;;6.87;5.07;;;4.80;1.00;;;;;;4989460;28;20271;-70
2021/01/19 08:29:23;;;;;;;5.13;4.63;;;4.70;1.00;;;;;;4989561;28;20176;-71
2021/01/19 08:31:54;;;;;;;5.65;5.10;;;4.70;1.00;;;;;;4989482;28;20172;-70
2021/01/19 08:34:21;;;;;;;7.63;5.40;;;4.80;1.00;;;;;;4989129;28;20583;-69
2021/01/19 08:36:48;;;;;;;5.60;5.00;;;4.80;1.00;;;;;;4989407;28;20172;-68
2021/01/19 08:39:16;;;;;;;5.18;4.60;;;4.80;1.00;;;;;;4989400;28;20180;-71
2021/01/19 08:41:46;;;;;;;5.72;4.75;;;4.80;1.00;;;;;;4989402;28;20235;-68
2021/01/19 08:44:16;;;;;;;5.70;5.00;;;4.90;1.00;;;;;;4989304;28;20238;-69
2021/01/19 08:46:43;;;;;;;5.68;4.78;;;4.80;1.00;;;;;;4986500;28;20278;-69
2021/01/19 08:49:17;;;;;;;4.90;4.10;;;4.70;1.00;;;;;;4983996;28;20211;-69
2021/01/19 08:51:46;;;;;;;8.07;4.50;;;4.70;1.00;;;;;;4978446;28;20215;-69
2021/01/19 08:54:12;;;;;;;5.05;3.90;;;4.70;1.00;;;;;;4987190;28;20184;-69
2021/01/19 08:56:40;;;;;;;5.00;4.43;;;4.80;1.00;;;;;;4988886;28;20176;-69
2021/01/19 08:59:06;;;;;;;4.78;4.13;;;4.90;1.00;;;;;;4988469;28;20411;-69
2021/01/19 09:01:32;;;;;;;4.90;3.88;;;5.10;1.00;;;;;;4988630;28;20663;-69
2021/01/19 09:04:00;;;;;;;3.50;3.20;;;5.10;1.00;;;;;;4988484;28;20263;-69
2021/01/19 09:06:27;;;;;;;3.97;3.45;;;5.10;99.90;;;;;;4985004;28;20427;-69
2021/01/19 09:09:01;;;;;;;3.22;2.70;;;5.20;99.90;;;;;;4989100;28;20729;-69
2021/01/19 09:11:32;;;;;;;2.83;2.60;;;5.40;1.00;;;;;;4988425;28;20203;-68
2021/01/19 09:14:09;;;;;;;3.50;3.20;;;5.50;99.90;;;;;;4988598;28;20195;-69
2021/01/19 09:16:36;;;;;;;3.53;2.78;;;5.60;1.00;;;;;;4983732;28;20180;-69
2021/01/19 09:19:08;;;;;;;3.20;2.90;;;5.60;99.90;;;;;;4988656;28;20181;-69
2021/01/19 09:21:35;;;;;;;4.35;2.70;;;5.50;1.00;;;;;;4988461;28;20277;-68
2021/01/19 09:24:01;;;;;;;2.72;2.53;;;5.60;1.00;;;;;;4988553;28;20265;-68
2021/01/19 09:26:26;;;;;;;2.80;2.30;;;5.70;99.90;;;;;;4988967;28;20227;-68
2021/01/19 09:28:52;;;;;;;3.10;2.80;;;5.70;99.90;;;;;;4988673;28;20192;-68
2021/01/19 09:31:21;;;;;;;2.87;2.67;;;5.70;1.00;;;;;;4988375;28;20542;-68
2021/01/19 09:33:49;;;;;;;3.38;2.65;;;5.70;99.90;;;;;;4988572;28;20767;-68
2021/01/19 09:36:15;;;;;;;5.68;2.60;;;5.70;1.00;;;;;;4988416;28;20964;-69
2021/01/19 09:38:43;;;;;;;2.50;2.30;;;5.60;1.00;;;;;;4992343;28;21010;-68
2021/01/19 09:41:17;;;;;;;2.42;2.22;;;5.50;99.90;;;;;;4991966;28;20615;-70
2021/01/19 09:43:52;;;;;;;2.83;2.50;;;5.50;1.00;;;;;;4992043;28;20180;-68
2021/01/19 09:46:23;;;;;;;2.50;2.33;;;5.50;99.90;;;;;;5006532;28;20183;-69
2021/01/19 09:48:50;;;;;;;5.03;2.65;;;5.50;99.90;;;;;;4991794;28;20180;-69
2021/01/19 09:51:27;;;;;;;2.45;2.25;;;5.40;1.00;;;;;;4987073;28;20211;-68
2021/01/19 09:53:54;;;;;;;6.55;2.85;;;5.40;1.00;;;;;;4990744;28;20584;-69
2021/01/19 09:56:20;;;;;;;3.88;2.60;;;5.40;1.00;;;;;;4990843;28;20256;-69
2021/01/19 09:58:46;;;;;;;3.50;2.80;;;5.40;99.90;;;;;;4990471;28;20266;-68
2021/01/19 10:01:23;;;;;;;4.00;2.30;;;5.40;50.30;;;;;;4991728;28;20184;-68
2021/01/19 10:03:49;;;;;;;3.50;2.45;;;5.30;1.00;;;;;;4979889;28;20183;-68
2021/01/19 10:06:19;;;;;;;2.90;2.27;;;5.30;1.00;;;;;;4992033;28;20246;-68
2021/01/19 10:08:50;;;;;;;3.05;2.55;;;5.20;1.00;;;;;;4979750;28;20425;-68
2021/01/19 10:11:37;;;;;;;3.22;2.42;;;5.20;1.00;;;;;;4990102;28;20213;-69
2021/01/19 10:14:19;;;;;;;2.88;2.55;;;5.30;99.90;;;;;;4980823;28;20176;-68
2021/01/19 10:16:48;;;;;;;2.67;2.47;;;5.40;99.90;;;;;;4986499;28;20259;-68
2021/01/19 10:19:35;;;;;;;3.40;2.83;;;5.50;1.00;;;;;;5022017;28;20190;-68
2021/01/19 10:22:10;;;;;;;2.72;2.50;;;5.60;99.90;;;;;;4991444;28;20180;-69
2021/01/19 10:24:45;;;;;;;3.72;2.70;;;5.60;1.00;;;;;;4991476;28;20253;-69
2021/01/19 10:27:11;;;;;;;3.03;2.83;;;5.70;1.00;;;;;;4991413;28;20184;-69
2021/01/19 10:29:39;;;;;;;2.70;2.50;;;5.70;1.00;;;;;;4989115;28;20593;-69
2021/01/19 10:32:13;;;;;;;2.65;2.20;;;5.70;1.00;;;;;;4991308;28;20255;-68
2021/01/19 10:34:44;;;;;;;3.13;2.83;;;5.70;1.00;;;;;;4990231;28;20626;-69
2021/01/19 10:37:10;;;;;;;3.08;2.55;;;5.80;1.00;;;;;;4990783;28;20223;-69
2021/01/19 10:39:59;;;;;;;3.30;2.30;;;5.90;50.90;;;;;;4991363;28;20192;-68
2021/01/19 10:42:27;;;;;;;3.67;2.80;;;5.90;1.00;;;;;;4991103;28;20176;-68
2021/01/19 10:44:54;;;;;;;4.88;2.90;;;5.90;99.90;;;;;;4989741;28;20586;-68
2021/01/19 10:47:20;;;;;;;3.50;2.90;;;6.00;1.00;;;;;;4989930;28;20184;-69
2021/01/19 10:49:45;;;;;;;2.63;2.43;;;6.20;1.00;;;;;;4990762;28;21088;-69
2021/01/19 10:52:12;;;;;;;3.10;2.70;;;6.00;99.90;;;;;;4988144;28;20176;-68
2021/01/19 10:54:38;;;;;;;3.15;2.80;;;6.00;99.90;;;;;;4989511;28;20184;-69
2021/01/19 10:57:06;;;;;;;3.03;2.80;;;6.20;1.00;;;;;;4989891;28;20194;-69
2021/01/19 10:59:32;;;;;;;2.95;2.75;;;6.40;1.00;;;;;;4987179;28;20578;-69
2021/01/19 11:01:58;;;;;;;4.22;3.38;;;6.40;1.00;;;;;;4990470;28;20196;-69
2021/01/19 11:04:24;;;;;;;3.10;2.73;;;6.40;99.90;;;;;;4989341;28;20211;-69
2021/01/19 11:06:50;;;;;;;3.37;2.80;;;6.40;1.00;;;;;;4989461;28;20177;-69
2021/01/19 11:09:15;;;;;;;4.87;2.70;;;6.40;1.00;;;;;;4989973;28;20424;-69
2021/01/19 11:11:41;;;;;;;3.40;3.10;;;6.40;1.00;;;;;;4989941;28;20614;-69
2021/01/19 11:14:07;;;;;;;3.40;2.80;;;6.40;1.00;;;;;;4989772;28;20187;-69
2021/01/19 11:16:39;;;;;;;2.97;2.67;;;6.50;1.00;;;;;;4989767;28;20431;-69
2021/01/19 11:19:07;;;;;;;2.78;2.58;;;6.50;99.90;;;;;;4990030;28;20188;-69
2021/01/19 11:21:34;;;;;;;2.75;2.55;;;6.20;1.00;;;;;;4989987;28;20185;-69
2021/01/19 11:24:02;;;;;;;2.80;2.55;;;6.00;99.90;;;;;;4989526;28;20643;-69
2021/01/19 11:26:28;;;;;;;4.15;3.00;;;6.00;1.00;;;;;;4990179;28;20519;-69
2021/01/19 11:28:54;;;;;;;4.20;3.65;;;6.00;1.00;;;;;;4990220;28;20697;-69
2021/01/19 11:31:24;;;;;;;4.97;4.47;;;6.00;99.90;;;;;;4989573;28;20254;-69
2021/01/19 11:33:50;;;;;;;4.63;4.22;;;5.90;99.90;;;;;;4986629;28;20187;-68
2021/01/19 11:36:24;;;;;;;5.43;4.70;;;5.80;1.00;;;;;;4984112;28;20199;-69
2021/01/19 11:38:51;;;;;;;6.47;5.45;;;5.70;43.10;;;;;;4989782;28;20254;-70
2021/01/19 11:41:22;;;;;;;6.97;5.38;;;5.60;61.60;;;;;;4989512;28;20671;-69
2021/01/19 11:43:48;;;;;;;6.18;5.60;;;5.50;99.90;;;;;;4989243;28;20184;-69
2021/01/19 11:46:27;;;;;;;6.78;5.05;;;5.40;64.50;;;;;;4989906;28;20280;-70
2021/01/19 11:48:55;;;;;;;5.70;5.10;;;5.30;1.00;;;;;;4989121;28;20514;-69
2021/01/19 11:51:23;;;;;;;6.72;5.38;;;5.30;1.00;;;;;;4989241;28;20197;-69
2021/01/19 11:53:50;;;;;;;5.68;5.15;;;5.30;1.00;;;;;;4989392;28;20252;-68
2021/01/19 11:56:17;;;;;;;6.13;5.50;;;5.20;1.00;;;;;;4989969;28;21109;-70
2021/01/19 11:58:44;;;;;;;6.65;6.05;;;5.20;99.90;;;;;;4989362;28;20950;-68
2021/01/19 12:01:19;;;;;;;6.03;5.50;;;5.30;1.00;;;;;;4989463;28;20211;-68
2021/01/19 12:03:46;;;;;;;5.90;5.40;;;5.30;1.00;;;;;;4989276;28;20841;-68
2021/01/19 12:06:12;;;;;;;7.10;5.93;;;5.20;1.00;;;;;;4989149;28;20219;-69
2021/01/19 12:08:37;;;;;;;6.07;5.47;;;5.10;1.00;;;;;;4971334;28;20203;-69
2021/01/19 12:11:06;;;;;;;5.90;5.30;;;5.00;99.90;;;;;;4989336;28;20841;-69
2021/01/19 12:13:32;;;;;;;6.93;5.47;;;5.10;99.90;;;;;;4989041;28;20255;-69
2021/01/19 12:15:57;;;;;;;6.00;5.40;;;5.10;99.90;;;;;;4987767;28;20271;-70
2021/01/19 12:18:23;;;;;;;7.57;5.90;;;5.10;99.90;;;;;;4989434;28;20215;-69
2021/01/19 12:20:48;;;;;;;7.50;5.40;;;5.10;99.90;;;;;;4989445;28;20563;-69
2021/01/19 12:23:17;;;;;;;6.43;5.80;;;5.10;99.90;;;;;;4988603;28;20195;-68
2021/01/19 12:25:42;;;;;;;7.53;5.35;;;5.10;99.90;;;;;;4989100;28;20180;-70
2021/01/19 12:28:08;;;;;;;6.40;5.30;;;5.00;99.90;;;;;;4988893;28;20244;-68
2021/01/19 12:30:34;;;;;;;10.80;6.50;;;5.00;99.90;;;;;;4989114;28;20331;-68
2021/01/19 12:32:59;;;;;;;5.03;4.50;;;5.00;1.00;;;;;;4988820;28;20898;-67
2021/01/19 12:35:25;;;;;;;8.00;5.40;;;4.80;99.90;;;;;;4989083;28;20188;-68
2021/01/19 12:37:55;;;;;;;6.50;5.50;;;4.80;99.90;;;;;;4989622;28;20191;-69
2021/01/19 12:40:21;;;;;;;7.70;5.35;;;4.90;1.00;;;;;;4987887;28;20285;-69
2021/01/19 12:42:46;;;;;;;10.43;6.03;;;4.80;1.00;;;;;;4989325;28;20196;-69
2021/01/19 12:45:12;;;;;;;9.17;5.70;;;4.80;1.00;;;;;;4989698;28;20773;-69
2021/01/19 12:47:38;;;;;;;6.88;5.97;;;4.80;1.00;;;;;;4987894;28;20204;-70
2021/01/19 12:50:05;;;;;;;7.47;5.23;;;4.90;1.00;;;;;;4989401;28;20196;-69
2021/01/19 12:52:30;;;;;;;6.57;5.70;;;4.80;1.00;;;;;;4989431;28;20176;-70
2021/01/19 12:54:56;;;;;;;6.07;4.93;;;4.80;1.00;;;;;;4987901;28;20190;-70
2021/01/19 12:57:21;;;;;;;5.50;4.87;;;4.80;1.00;;;;;;4989398;28;20176;-70
2021/01/19 12:59:47;;;;;;;5.90;5.30;;;4.80;1.00;;;;;;4989197;28;20176;-66
2021/01/19 13:02:13;;;;;;;7.80;5.60;;;4.80;1.00;;;;;;4987829;28;20270;-66
2021/01/19 13:04:38;;;;;;;6.40;5.80;;;4.80;1.00;;;;;;4989294;28;20191;-66
2021/01/19 13:07:04;;;;;;;5.50;4.90;;;4.70;1.00;;;;;;4988881;28;20184;-67
2021/01/19 13:09:30;;;;;;;6.37;5.70;;;4.70;1.00;;;;;;4989142;28;20168;-67
2021/01/19 13:11:55;;;;;;;5.97;5.03;;;4.60;1.00;;;;;;4993103;28;20607;-67
2021/01/19 13:14:21;;;;;;;5.83;5.23;;;4.60;1.00;;;;;;4993288;28;20616;-68
2021/01/19 13:16:56;;;;;;;6.90;5.03;;;4.60;1.00;;;;;;4992630;28;20188;-66